Time;durP1;ratioP1;P1;durP2;ratioP2;P2;SDS_P1;SDS_P2;PMS_P1;PMS_P2;Temp;Humidity;BMP_temperature;BMP_pressure;BME280_temperature;BME280_humidity;BME280_pressure;Samples;Min_cycle;Max_cycle;Signal;HPM_P1;HPM_P2
2023/09/20 00:00:24;;;;;;;3.10;1.20;;;17.20;1.00;;;;;;4956209;28;20205;-89
2023/09/20 00:02:50;;;;;;;2.67;1.17;;;17.20;1.00;;;;;;4955787;28;20527;-90
2023/09/20 00:05:18;;;;;;;2.25;1.00;;;17.20;1.00;;;;;;4955730;28;20209;-90
2023/09/20 00:07:46;;;;;;;3.85;1.20;;;17.20;1.00;;;;;;4955746;28;20264;-91
2023/09/20 00:10:15;;;;;;;2.85;1.02;;;17.10;1.00;;;;;;4952698;28;20551;-90
2023/09/20 00:12:42;;;;;;;3.83;1.38;;;17.20;1.00;;;;;;4955687;28;20185;-91
2023/09/20 00:15:08;;;;;;;2.88;1.02;;;17.20;1.00;;;;;;4939836;28;20622;-91
2023/09/20 00:17:36;;;;;;;2.58;1.20;;;17.10;1.00;;;;;;4939863;28;20215;-90
2023/09/20 00:20:32;;;;;;;4.25;1.38;;;17.10;1.00;;;;;;4953817;28;20620;-89
2023/09/20 00:23:00;;;;;;;2.80;1.00;;;17.10;1.00;;;;;;4953679;28;20195;-89
2023/09/20 00:25:46;;;;;;;1.95;1.02;;;17.10;1.00;;;;;;4953694;28;20197;-89
2023/09/20 00:28:13;;;;;;;1.92;1.00;;;17.10;1.00;;;;;;4954355;28;20674;-89
2023/09/20 00:30:39;;;;;;;1.85;1.20;;;17.00;1.00;;;;;;4954669;28;20192;-90
2023/09/20 00:33:05;;;;;;;2.45;1.08;;;17.10;1.00;;;;;;4954024;28;20189;-89
2023/09/20 00:35:31;;;;;;;2.85;0.90;;;17.00;1.00;;;;;;4953932;28;20207;-89
2023/09/20 00:37:57;;;;;;;2.58;1.10;;;17.00;1.00;;;;;;4954161;28;20212;-90
2023/09/20 00:40:47;;;;;;;2.17;1.30;;;17.00;1.00;;;;;;4954012;28;20177;-90
2023/09/20 00:43:27;;;;;;;3.97;1.40;;;17.00;1.00;;;;;;4953562;28;20181;-89
2023/09/20 00:46:00;;;;;;;2.78;1.20;;;16.90;1.00;;;;;;4957820;28;20312;-90
2023/09/20 00:48:57;;;;;;;3.10;1.10;;;16.90;1.00;;;;;;4957322;28;20200;-90
2023/09/20 00:51:26;;;;;;;1.70;1.15;;;16.90;1.00;;;;;;4941160;28;20693;-90
2023/09/20 00:54:21;;;;;;;2.67;1.00;;;16.90;1.00;;;;;;4941373;28;20263;-90
2023/09/20 00:56:47;;;;;;;4.18;1.30;;;16.90;1.00;;;;;;4949723;28;20205;-91
2023/09/20 00:59:15;;;;;;;2.60;1.10;;;16.80;1.00;;;;;;4974661;28;20255;-90
2023/09/20 01:01:46;;;;;;;4.22;1.73;;;16.80;1.00;;;;;;4973380;28;20235;-91
2023/09/20 01:04:34;;;;;;;3.08;1.40;;;16.90;1.00;;;;;;4957024;28;20209;-90
2023/09/20 01:07:00;;;;;;;3.28;1.10;;;16.80;1.00;;;;;;4955827;28;20197;-89
2023/09/20 01:09:26;;;;;;;3.28;1.27;;;16.80;1.00;;;;;;4940894;28;20200;-90
2023/09/20 01:11:51;;;;;;;2.47;1.20;;;16.80;1.00;;;;;;4956712;28;20181;-89
2023/09/20 01:14:19;;;;;;;3.83;1.23;;;16.70;1.00;;;;;;4956325;28;20299;-88
2023/09/20 01:16:45;;;;;;;4.05;1.25;;;16.70;1.00;;;;;;4954713;28;20774;-89
2023/09/20 01:19:10;;;;;;;3.22;1.50;;;16.70;1.00;;;;;;4958259;28;20185;-89
2023/09/20 01:21:43;;;;;;;3.22;1.35;;;16.70;1.00;;;;;;4958764;28;20189;-89
2023/09/20 01:24:10;;;;;;;3.67;1.42;;;16.70;1.00;;;;;;4975876;28;20241;-89
2023/09/20 01:26:39;;;;;;;2.40;1.23;;;16.60;1.00;;;;;;4958970;28;20192;-89
2023/09/20 01:29:05;;;;;;;2.72;1.38;;;16.70;1.00;;;;;;4958955;28;20212;-90
2023/09/20 01:31:31;;;;;;;2.75;1.20;;;16.60;1.00;;;;;;4976297;28;20663;-90
2023/09/20 01:33:57;;;;;;;4.53;1.42;;;16.70;1.00;;;;;;4958928;28;20677;-89
2023/09/20 01:36:22;;;;;;;3.72;1.40;;;16.70;1.00;;;;;;4958726;28;20232;-90
2023/09/20 01:38:48;;;;;;;5.20;1.27;;;16.60;1.00;;;;;;4958869;28;20552;-92
2023/09/20 01:41:14;;;;;;;2.88;1.30;;;16.60;1.00;;;;;;4975972;28;20235;-90
2023/09/20 01:43:41;;;;;;;3.35;1.30;;;16.70;1.00;;;;;;4975955;28;20855;-91
2023/09/20 01:46:07;;;;;;;3.22;1.30;;;16.60;1.00;;;;;;4958983;28;20185;-91
2023/09/20 01:48:34;;;;;;;2.97;1.23;;;16.60;1.00;;;;;;4976112;28;20228;-89
2023/09/20 01:50:59;;;;;;;2.85;1.25;;;16.70;1.00;;;;;;4976266;28;20195;-89
2023/09/20 01:53:25;;;;;;;3.10;1.70;;;16.70;1.00;;;;;;4956531;28;20284;-88
2023/09/20 01:55:51;;;;;;;2.97;1.38;;;16.70;1.00;;;;;;4955277;28;20204;-89
2023/09/20 01:58:17;;;;;;;2.13;1.25;;;16.70;1.00;;;;;;4972134;28;20197;-89
2023/09/20 02:00:42;;;;;;;4.30;1.20;;;16.70;1.00;;;;;;4956273;28;20187;-90
2023/09/20 02:03:13;;;;;;;2.67;1.48;;;16.70;1.00;;;;;;4956218;28;20181;-90
2023/09/20 02:05:40;;;;;;;3.60;1.42;;;16.50;1.00;;;;;;4955926;28;20201;-88
2023/09/20 02:08:08;;;;;;;2.63;1.20;;;16.70;1.00;;;;;;4955757;28;20200;-90
2023/09/20 02:10:39;;;;;;;3.58;1.40;;;16.60;1.00;;;;;;4956402;28;20193;-89
2023/09/20 02:13:05;;;;;;;2.80;1.40;;;16.70;1.00;;;;;;4955983;28;21101;-89
2023/09/20 02:15:36;;;;;;;4.13;1.48;;;16.70;1.00;;;;;;4957896;28;20290;-90
2023/09/20 02:18:05;;;;;;;1.73;1.13;;;16.60;1.00;;;;;;4957903;28;20232;-90
2023/09/20 02:20:36;;;;;;;3.45;1.35;;;16.50;1.00;;;;;;4972654;28;20181;-91
2023/09/20 02:23:04;;;;;;;3.47;1.42;;;16.50;1.00;;;;;;4957214;28;20256;-90
2023/09/20 02:25:30;;;;;;;3.78;1.52;;;16.50;1.00;;;;;;4971519;28;20200;-90
2023/09/20 02:27:57;;;;;;;2.97;1.40;;;16.60;1.00;;;;;;4972905;28;20192;-90
2023/09/20 02:30:35;;;;;;;3.00;1.40;;;16.50;1.00;;;;;;4955354;28;20197;-88
2023/09/20 02:33:05;;;;;;;3.05;1.33;;;16.50;1.00;;;;;;4964962;28;20613;-88
2023/09/20 02:35:32;;;;;;;3.45;1.52;;;16.60;1.00;;;;;;4954790;28;20240;-87
2023/09/20 02:37:59;;;;;;;4.38;1.65;;;16.60;1.00;;;;;;4954319;28;20204;-89
2023/09/20 02:40:28;;;;;;;4.40;2.30;;;16.60;1.00;;;;;;4972603;28;20618;-90
2023/09/20 02:42:58;;;;;;;3.83;1.48;;;16.60;1.00;;;;;;4954974;28;20689;-90
2023/09/20 02:45:24;;;;;;;3.22;1.40;;;16.60;1.00;;;;;;4954632;28;20232;-89
2023/09/20 02:47:50;;;;;;;3.20;1.45;;;16.60;1.00;;;;;;4970517;28;20173;-89
2023/09/20 02:50:18;;;;;;;3.97;1.70;;;16.50;1.00;;;;;;4954528;28;20676;-90
2023/09/20 02:52:47;;;;;;;3.08;1.30;;;16.50;6.80;;;;;;4954760;28;20196;-90
2023/09/20 02:55:15;;;;;;;2.13;1.42;;;16.50;10.50;;;;;;4954838;28;20652;-89
2023/09/20 02:57:42;;;;;;;3.22;1.48;;;16.50;11.60;;;;;;4954067;28;20204;-89
2023/09/20 03:00:16;;;;;;;4.03;1.60;;;16.50;15.20;;;;;;4955550;28;20185;-90
2023/09/20 03:02:46;;;;;;;3.00;1.40;;;16.50;15.10;;;;;;4956451;28;20185;-90
2023/09/20 03:05:17;;;;;;;4.05;1.40;;;16.50;25.70;;;;;;4956812;28;20216;-90
2023/09/20 03:07:44;;;;;;;3.00;1.40;;;16.60;29.90;;;;;;4953476;28;20200;-91
2023/09/20 03:10:14;;;;;;;4.45;1.50;;;16.50;33.70;;;;;;4956225;28;20227;-89
2023/09/20 03:12:47;;;;;;;3.20;1.33;;;16.50;28.60;;;;;;4957122;28;20208;-89
2023/09/20 03:15:19;;;;;;;2.90;1.50;;;16.40;40.00;;;;;;4956877;28;20207;-88
2023/09/20 03:17:45;;;;;;;2.90;1.40;;;16.50;48.00;;;;;;4956638;28;20677;-89
2023/09/20 03:20:12;;;;;;;3.25;1.83;;;16.40;59.20;;;;;;4956775;28;20625;-90
2023/09/20 03:22:38;;;;;;;1.85;1.27;;;16.40;71.30;;;;;;4956745;28;20252;-90
2023/09/20 03:25:04;;;;;;;3.40;1.45;;;16.30;97.30;;;;;;4974005;28;20213;-90
2023/09/20 03:27:31;;;;;;;3.15;1.33;;;16.30;86.50;;;;;;4956889;28;20263;-90
2023/09/20 03:29:57;;;;;;;2.55;1.25;;;16.30;91.60;;;;;;4956639;28;20189;-90
2023/09/20 03:32:23;;;;;;;4.28;1.63;;;16.30;95.10;;;;;;4956756;28;20248;-90
2023/09/20 03:34:49;;;;;;;4.25;1.50;;;16.30;96.40;;;;;;4956554;28;20213;-90
2023/09/20 03:37:17;;;;;;;3.00;1.30;;;16.30;98.60;;;;;;4956568;28;20652;-90
2023/09/20 03:39:43;;;;;;;4.88;1.35;;;16.20;99.90;;;;;;4960510;28;20590;-90
2023/09/20 03:42:11;;;;;;;3.20;1.73;;;16.30;99.90;;;;;;4956408;28;20188;-90
2023/09/20 03:44:38;;;;;;;2.13;1.40;;;16.30;99.90;;;;;;4956525;28;20264;-90
2023/09/20 03:47:05;;;;;;;2.65;1.17;;;16.20;99.90;;;;;;4956707;28;20640;-90
2023/09/20 03:49:31;;;;;;;2.97;1.52;;;16.20;99.90;;;;;;4956592;28;20199;-90
2023/09/20 03:51:59;;;;;;;4.35;1.50;;;16.30;99.90;;;;;;4973561;28;20275;-90
2023/09/20 03:54:26;;;;;;;3.25;1.38;;;16.30;99.90;;;;;;4956207;28;20212;-89
2023/09/20 03:56:51;;;;;;;3.35;1.67;;;16.30;99.90;;;;;;4973486;28;20219;-89
2023/09/20 03:59:18;;;;;;;3.30;1.30;;;16.30;99.90;;;;;;4954795;28;20181;-90
2023/09/20 04:01:43;;;;;;;5.18;1.80;;;16.20;99.90;;;;;;4953919;28;20548;-88
2023/09/20 04:04:09;;;;;;;2.85;1.40;;;16.20;99.90;;;;;;4953632;28;20201;-87
2023/09/20 04:06:35;;;;;;;3.35;1.50;;;16.30;99.90;;;;;;4971165;28;20251;-90
2023/09/20 04:09:09;;;;;;;4.40;1.23;;;16.30;99.90;;;;;;4972496;28;20681;-91
2023/09/20 04:11:39;;;;;;;4.40;2.00;;;16.20;99.90;;;;;;4973470;28;20180;-90
2023/09/20 04:14:07;;;;;;;4.65;2.00;;;16.20;99.90;;;;;;4956079;28;20741;-89
2023/09/20 04:16:33;;;;;;;3.42;1.60;;;16.30;99.90;;;;;;4956110;28;20189;-89
2023/09/20 04:18:59;;;;;;;4.07;1.45;;;16.20;99.90;;;;;;4971392;28;20185;-89
2023/09/20 04:21:24;;;;;;;3.17;1.52;;;16.20;99.90;;;;;;4956707;28;20187;-89
2023/09/20 04:23:50;;;;;;;3.80;1.40;;;16.20;99.90;;;;;;4976953;28;20243;-88
2023/09/20 04:26:16;;;;;;;2.65;1.80;;;16.20;99.90;;;;;;4960134;28;20218;-89
2023/09/20 04:28:41;;;;;;;4.07;1.70;;;16.20;99.90;;;;;;4959878;28;20567;-89
2023/09/20 04:31:10;;;;;;;3.90;1.58;;;16.20;99.90;;;;;;4959935;28;20181;-88
2023/09/20 04:33:36;;;;;;;3.10;1.50;;;16.20;99.90;;;;;;4959660;28;20189;-89
2023/09/20 04:36:04;;;;;;;3.83;1.70;;;16.20;99.90;;;;;;4959653;28;20260;-89
2023/09/20 04:38:30;;;;;;;3.17;1.50;;;16.10;99.90;;;;;;4959534;28;20304;-89
2023/09/20 04:40:59;;;;;;;4.32;2.17;;;16.10;99.90;;;;;;4959578;28;20562;-89
2023/09/20 04:43:25;;;;;;;3.63;1.50;;;16.10;99.90;;;;;;4940621;29;20185;-90
2023/09/20 04:45:51;;;;;;;3.90;1.90;;;16.10;99.90;;;;;;4940488;29;20201;-89
2023/09/20 04:48:16;;;;;;;5.38;1.77;;;16.00;99.90;;;;;;4940440;29;20186;-90
2023/09/20 04:50:42;;;;;;;3.78;1.60;;;16.10;99.90;;;;;;4940296;29;20599;-90
2023/09/20 04:53:37;;;;;;;4.30;1.67;;;16.00;99.90;;;;;;4940212;29;20204;-89
2023/09/20 04:56:05;;;;;;;3.78;1.65;;;16.00;99.90;;;;;;4940312;29;20177;-90
2023/09/20 04:58:31;;;;;;;5.75;2.25;;;16.00;99.90;;;;;;4939973;29;20233;-89
2023/09/20 05:00:57;;;;;;;6.25;1.83;;;16.00;99.90;;;;;;4940186;29;20177;-89
2023/09/20 05:03:24;;;;;;;3.15;1.70;;;16.20;99.90;;;;;;4940109;29;20189;-90
2023/09/20 05:05:51;;;;;;;2.47;1.70;;;16.10;99.90;;;;;;4940030;29;20221;-89
2023/09/20 05:08:18;;;;;;;2.78;1.60;;;16.20;99.90;;;;;;4940099;29;20186;-89
2023/09/20 05:10:44;;;;;;;3.13;1.67;;;16.20;99.90;;;;;;4939984;29;20265;-91
2023/09/20 05:13:11;;;;;;;5.05;1.85;;;16.20;99.90;;;;;;4940000;29;20178;-90
2023/09/20 05:15:39;;;;;;;7.10;1.98;;;16.20;99.90;;;;;;4939823;29;20736;-90
2023/09/20 05:18:06;;;;;;;3.35;1.73;;;16.30;99.90;;;;;;4940384;29;20218;-90
2023/09/20 05:20:32;;;;;;;4.38;1.58;;;16.20;99.90;;;;;;4940824;29;20192;-91
2023/09/20 05:22:59;;;;;;;5.53;1.77;;;16.20;99.90;;;;;;4939952;29;20714;-91
2023/09/20 05:25:25;;;;;;;5.85;1.67;;;16.30;99.90;;;;;;4938794;29;20756;-90
2023/09/20 05:27:51;;;;;;;3.15;1.63;;;16.30;99.90;;;;;;4936215;29;20236;-91
2023/09/20 05:30:18;;;;;;;2.58;1.52;;;16.30;99.90;;;;;;4939713;29;20181;-89
2023/09/20 05:32:45;;;;;;;4.53;1.55;;;16.40;99.90;;;;;;4938519;29;20208;-89
2023/09/20 05:35:15;;;;;;;5.10;1.67;;;16.50;99.90;;;;;;4939415;29;20265;-89
2023/09/20 05:37:40;;;;;;;3.92;1.85;;;16.50;99.90;;;;;;4939432;29;20201;-90
2023/09/20 05:40:13;;;;;;;3.75;1.80;;;16.40;99.90;;;;;;4939567;29;20180;-89
2023/09/20 05:42:40;;;;;;;5.07;1.95;;;16.40;99.90;;;;;;4939482;29;20225;-89
2023/09/20 05:45:06;;;;;;;3.17;1.85;;;16.30;99.90;;;;;;4939160;29;20209;-89
2023/09/20 05:47:35;;;;;;;4.57;1.92;;;16.30;99.90;;;;;;4943515;28;20216;-89
2023/09/20 05:50:01;;;;;;;4.40;2.05;;;16.30;99.90;;;;;;4957978;28;20196;-88
2023/09/20 05:52:26;;;;;;;4.05;1.65;;;16.30;99.90;;;;;;4958048;28;20208;-88
2023/09/20 05:54:52;;;;;;;3.70;1.80;;;16.30;99.90;;;;;;4957943;28;20340;-88
2023/09/20 05:57:19;;;;;;;4.00;1.80;;;16.30;99.90;;;;;;4975280;28;20703;-88
2023/09/20 05:59:45;;;;;;;3.38;1.85;;;16.30;99.90;;;;;;4957948;28;20189;-87
2023/09/20 06:02:10;;;;;;;3.35;1.60;;;16.40;99.90;;;;;;4957545;28;20192;-87
2023/09/20 06:04:41;;;;;;;4.03;1.83;;;16.50;99.90;;;;;;4957419;28;20708;-87
2023/09/20 06:07:07;;;;;;;3.95;1.80;;;16.50;99.90;;;;;;4956871;28;20192;-87
2023/09/20 06:09:32;;;;;;;3.15;1.60;;;16.40;99.90;;;;;;4957263;28;20185;-87
2023/09/20 06:11:58;;;;;;;2.80;1.67;;;16.40;99.90;;;;;;4974568;28;20669;-88
2023/09/20 06:14:24;;;;;;;3.78;1.70;;;16.50;99.90;;;;;;4957458;28;20211;-87
2023/09/20 06:16:51;;;;;;;4.53;1.90;;;16.50;99.90;;;;;;4957266;28;20227;-87
2023/09/20 06:19:17;;;;;;;3.33;1.70;;;16.50;99.90;;;;;;4957213;28;20185;-87
2023/09/20 06:21:44;;;;;;;4.05;1.73;;;16.60;99.90;;;;;;4957415;28;20188;-87
2023/09/20 06:24:12;;;;;;;4.20;1.60;;;16.60;99.90;;;;;;4957229;28;20201;-87
2023/09/20 06:26:41;;;;;;;2.75;1.50;;;16.70;99.90;;;;;;4957172;28;20192;-87
2023/09/20 06:29:09;;;;;;;3.45;1.52;;;16.70;99.90;;;;;;4974302;28;20216;-87
2023/09/20 06:31:37;;;;;;;4.85;1.70;;;16.80;99.90;;;;;;4957067;28;20189;-87
2023/09/20 06:34:03;;;;;;;4.03;1.95;;;16.80;99.90;;;;;;4956860;28;20205;-87
2023/09/20 06:36:29;;;;;;;6.68;2.00;;;16.90;99.90;;;;;;4957094;28;20636;-86
2023/09/20 06:38:55;;;;;;;3.65;1.83;;;17.00;99.90;;;;;;4957008;28;20305;-87
2023/09/20 06:41:20;;;;;;;5.40;1.80;;;17.10;99.90;;;;;;4973754;28;20561;-87
2023/09/20 06:43:46;;;;;;;3.25;1.70;;;17.10;99.90;;;;;;4956876;28;20181;-86
2023/09/20 06:46:12;;;;;;;2.90;1.40;;;17.10;99.90;;;;;;4957191;28;20603;-86
2023/09/20 06:48:37;;;;;;;4.32;1.70;;;17.30;99.90;;;;;;4957130;28;20199;-85
2023/09/20 06:51:05;;;;;;;4.50;1.63;;;17.30;99.90;;;;;;4956653;28;20188;-86
2023/09/20 06:53:31;;;;;;;4.60;1.67;;;17.30;99.90;;;;;;4960781;28;20242;-86
2023/09/20 06:55:59;;;;;;;3.28;1.63;;;17.30;99.90;;;;;;4971435;28;20749;-87
2023/09/20 06:58:25;;;;;;;3.35;1.65;;;17.40;99.90;;;;;;4954884;28;20243;-86
2023/09/20 07:00:52;;;;;;;3.25;1.65;;;17.40;99.90;;;;;;4956388;28;20192;-87
2023/09/20 07:03:22;;;;;;;4.15;1.55;;;17.40;99.90;;;;;;4955592;28;20280;-86
2023/09/20 07:05:48;;;;;;;3.63;1.73;;;17.40;99.90;;;;;;4956087;28;20208;-86
2023/09/20 07:08:14;;;;;;;4.10;1.73;;;17.40;99.90;;;;;;4956167;28;20255;-85
2023/09/20 07:10:41;;;;;;;3.53;1.50;;;17.40;99.90;;;;;;4956019;28;20276;-85
2023/09/20 07:13:09;;;;;;;3.40;1.60;;;17.40;99.90;;;;;;4973578;28;20554;-86
2023/09/20 07:15:35;;;;;;;4.57;1.75;;;17.40;99.90;;;;;;4947952;28;20580;-86
2023/09/20 07:18:11;;;;;;;3.35;1.60;;;17.50;99.90;;;;;;4956081;28;20205;-85
2023/09/20 07:20:39;;;;;;;2.80;1.60;;;17.50;99.90;;;;;;4956008;28;20199;-86
2023/09/20 07:23:08;;;;;;;5.13;1.55;;;17.60;99.90;;;;;;4956303;28;20185;-86
2023/09/20 07:25:36;;;;;;;3.97;1.40;;;17.70;99.90;;;;;;4957345;28;20212;-88
2023/09/20 07:28:02;;;;;;;4.90;1.40;;;17.70;99.90;;;;;;4956169;28;20292;-86
2023/09/20 07:30:40;;;;;;;4.38;1.77;;;17.70;99.90;;;;;;4956199;28;20189;-86
2023/09/20 07:33:11;;;;;;;2.80;1.55;;;17.70;99.90;;;;;;4973704;28;20256;-86
2023/09/20 07:35:49;;;;;;;3.28;1.35;;;17.80;99.90;;;;;;4954692;28;20204;-87
2023/09/20 07:38:32;;;;;;;3.08;1.60;;;17.80;99.90;;;;;;4955729;28;20204;-86
2023/09/20 07:41:09;;;;;;;3.80;1.52;;;18.00;99.90;;;;;;4954085;28;20266;-87
2023/09/20 07:43:38;;;;;;;2.75;1.60;;;18.00;99.90;;;;;;4956423;28;20681;-86
2023/09/20 07:46:07;;;;;;;4.60;1.65;;;18.10;99.90;;;;;;4971789;28;20204;-86
2023/09/20 07:48:34;;;;;;;2.78;1.48;;;18.10;99.90;;;;;;4954747;28;20197;-87
2023/09/20 07:51:04;;;;;;;2.67;1.40;;;18.20;99.90;;;;;;4955493;28;20193;-86
2023/09/20 07:53:30;;;;;;;2.50;1.40;;;18.30;99.90;;;;;;4954700;28;20203;-86
2023/09/20 07:56:06;;;;;;;5.13;1.90;;;18.40;99.90;;;;;;4958302;28;20184;-87
2023/09/20 07:58:40;;;;;;;2.10;1.25;;;18.50;99.90;;;;;;4961776;28;20219;-87
2023/09/20 08:01:20;;;;;;;4.85;1.50;;;18.50;99.90;;;;;;4962171;28;20324;-86
2023/09/20 08:03:52;;;;;;;1.92;1.50;;;18.70;99.90;;;;;;4962222;28;20184;-87
2023/09/20 08:06:23;;;;;;;3.53;1.25;;;18.70;99.90;;;;;;4962280;28;20200;-88
2023/09/20 08:08:49;;;;;;;3.97;1.40;;;18.70;99.90;;;;;;4961498;28;20247;-87
2023/09/20 08:11:14;;;;;;;3.05;1.65;;;18.90;99.90;;;;;;4961829;28;20712;-88
2023/09/20 08:13:40;;;;;;;3.47;1.80;;;19.20;99.90;;;;;;4961187;28;20185;-87
2023/09/20 08:16:09;;;;;;;2.47;1.27;;;19.30;99.90;;;;;;4960733;28;20185;-88
2023/09/20 08:21:20;;;;;;;2.60;1.30;;;19.20;99.90;;;;;;4977030;28;20720;-87
2023/09/20 08:59:54;;;;;;;5.93;1.38;;;19.70;99.90;;;;;;4978066;28;20227;-87
2023/09/20 09:02:21;;;;;;;3.28;1.25;;;19.80;99.90;;;;;;4960827;28;20533;-87
2023/09/20 09:04:52;;;;;;;3.35;1.25;;;19.90;99.90;;;;;;4976692;28;20201;-88
2023/09/20 09:07:17;;;;;;;2.42;1.30;;;20.00;99.90;;;;;;4973095;28;20192;-89
2023/09/20 09:09:46;;;;;;;2.58;1.23;;;20.00;99.90;;;;;;4956447;28;20215;-87
2023/09/20 09:12:12;;;;;;;4.55;1.30;;;20.00;99.90;;;;;;4954816;28;20216;-88
2023/09/20 09:14:39;;;;;;;2.47;1.40;;;20.10;99.90;;;;;;4952892;28;20212;-87
2023/09/20 09:17:09;;;;;;;1.52;1.15;;;20.20;85.80;;;;;;4954677;28;20217;-88
2023/09/20 09:19:37;;;;;;;1.95;1.23;;;20.20;92.10;;;;;;4953773;28;20187;-87
2023/09/20 09:22:03;;;;;;;2.58;1.63;;;20.30;88.60;;;;;;4957842;28;20567;-86
2023/09/20 09:24:44;;;;;;;1.55;1.13;;;20.40;66.10;;;;;;4956649;28;20216;-88
2023/09/20 09:27:10;;;;;;;2.83;1.20;;;20.40;70.20;;;;;;4956024;28;20194;-88
2023/09/20 09:29:38;;;;;;;2.28;1.40;;;20.30;70.50;;;;;;4956109;28;20185;-86
2023/09/20 09:32:04;;;;;;;2.55;1.17;;;20.30;70.50;;;;;;4956148;28;20189;-86
2023/09/20 09:34:30;;;;;;;2.08;1.40;;;20.40;79.70;;;;;;4956304;28;20216;-87
